Time;durP1;ratioP1;P1;durP2;ratioP2;P2;SDS_P1;SDS_P2;PMS_P1;PMS_P2;Temp;Humidity;BMP_temperature;BMP_pressure;BME280_temperature;BME280_humidity;BME280_pressure;Samples;Min_cycle;Max_cycle;Signal;HPM_P1;HPM_P2
2024/04/14 00:00:52;;;;;;;8.00;4.45;;;;;;;14.29;100.00;93464.31;5520558;26;19997;-79
2024/04/14 00:03:18;;;;;;;13.15;5.00;;;;;;;14.27;100.00;93466.44;5513510;26;19994;-79
2024/04/14 00:05:44;;;;;;;12.80;5.35;;;;;;;14.23;100.00;93460.97;5488271;26;20281;-79
2024/04/14 00:08:09;;;;;;;7.30;4.50;;;;;;;14.24;100.00;93459.13;5522410;25;20007;-79
2024/04/14 00:10:35;;;;;;;9.10;4.85;;;;;;;14.24;100.00;93454.63;5514471;26;19997;-79
2024/04/14 00:13:01;;;;;;;8.32;4.45;;;;;;;14.23;100.00;93452.25;5520577;25;20590;-79
2024/04/14 00:15:27;;;;;;;10.27;4.50;;;;;;;14.21;100.00;93455.19;5501848;26;20009;-79
2024/04/14 00:17:53;;;;;;;9.70;4.20;;;;;;;14.15;100.00;93451.84;5499496;26;20439;-79
2024/04/14 00:20:19;;;;;;;9.50;4.30;;;;;;;14.16;100.00;93452.63;5520787;25;20011;-80
2024/04/14 00:22:45;;;;;;;7.97;3.90;;;;;;;14.12;100.00;93449.00;5522835;26;20538;-79
2024/04/14 00:25:12;;;;;;;8.48;4.03;;;;;;;14.08;100.00;93446.16;5461677;26;20009;-79
2024/04/14 00:27:37;;;;;;;7.90;3.45;;;;;;;14.10;100.00;93454.56;5520615;25;20473;-79
2024/04/14 00:30:03;;;;;;;12.35;3.72;;;;;;;14.04;100.00;93441.75;5521114;26;20009;-79
2024/04/14 00:32:29;;;;;;;8.23;3.63;;;;;;;14.03;100.00;93450.72;5490267;26;20074;-80
2024/04/14 00:34:55;;;;;;;8.25;3.40;;;;;;;14.00;100.00;93448.63;5520860;26;20041;-80
2024/04/14 00:37:20;;;;;;;6.07;2.80;;;;;;;13.95;100.00;93445.00;5520710;25;20009;-79
2024/04/14 00:39:46;;;;;;;6.38;3.10;;;;;;;13.87;100.00;93436.94;5520468;26;20009;-79
2024/04/14 00:42:11;;;;;;;6.80;3.50;;;;;;;13.89;100.00;93446.16;5523257;26;20659;-80
2024/04/14 00:44:37;;;;;;;8.43;4.10;;;;;;;13.85;100.00;93447.78;5474817;26;20056;-78
2024/04/14 00:47:03;;;;;;;6.45;3.47;;;;;;;13.82;100.00;93444.91;5521963;26;20341;-79
2024/04/14 00:49:30;;;;;;;8.32;3.63;;;;;;;13.81;100.00;93449.41;5517903;26;20012;-79
2024/04/14 00:52:01;;;;;;;8.48;3.80;;;;;;;13.80;100.00;93442.53;5506112;26;20001;-79
2024/04/14 00:54:27;;;;;;;9.52;3.80;;;;;;;13.79;100.00;93441.00;5504602;26;20013;-78
2024/04/14 00:56:53;;;;;;;7.60;4.07;;;;;;;13.78;100.00;93439.44;5520738;25;20340;-78
2024/04/14 00:59:19;;;;;;;6.03;3.50;;;;;;;13.75;100.00;93440.00;5519390;26;20002;-79
2024/04/14 01:01:46;;;;;;;10.98;4.00;;;;;;;13.73;100.00;93442.13;5517834;26;20037;-78
2024/04/14 01:04:12;;;;;;;8.63;4.00;;;;;;;13.71;100.00;93436.34;5520062;26;19998;-78
2024/04/14 01:06:38;;;;;;;11.95;4.68;;;;;;;13.74;100.00;93433.94;5514409;25;20304;-79
2024/04/14 01:09:04;;;;;;;13.57;4.97;;;;;;;13.77;100.00;93431.81;5518257;26;20002;-79
2024/04/14 01:11:29;;;;;;;10.73;5.78;;;;;;;13.70;100.00;93425.03;5521679;26;19994;-78
2024/04/14 01:13:55;;;;;;;11.48;5.47;;;;;;;13.78;100.00;93423.66;5519595;25;20014;-79
2024/04/14 01:16:20;;;;;;;14.43;5.22;;;;;;;13.79;100.00;93425.22;5518866;25;19993;-79
2024/04/14 01:18:46;;;;;;;10.85;5.45;;;;;;;13.73;100.00;93421.06;5518547;25;19997;-79
2024/04/14 01:21:12;;;;;;;12.07;4.93;;;;;;;13.80;100.00;93420.72;5522220;26;20004;-79
2024/04/14 01:23:39;;;;;;;7.93;4.63;;;;;;;13.78;100.00;93421.03;5521953;26;20054;-79
2024/04/14 01:26:05;;;;;;;7.05;4.30;;;;;;;13.77;100.00;93422.06;5512165;25;19994;-79
2024/04/14 01:28:31;;;;;;;10.48;4.22;;;;;;;13.75;100.00;93413.66;5495041;26;20460;-78
2024/04/14 01:30:56;;;;;;;8.80;3.70;;;;;;;13.78;100.00;93417.59;5525891;26;20016;-79
2024/04/14 01:33:22;;;;;;;8.68;3.63;;;;;;;13.74;100.00;93412.91;5511864;25;20008;-79
2024/04/14 01:35:48;;;;;;;6.80;3.38;;;;;;;13.70;100.00;93414.53;5526482;25;20001;-79
2024/04/14 01:38:14;;;;;;;6.38;3.50;;;;;;;13.68;100.00;93407.97;5526611;26;20008;-80
2024/04/14 01:40:40;;;;;;;11.10;3.50;;;;;;;13.67;100.00;93406.44;5523945;26;20081;-79
2024/04/14 01:43:06;;;;;;;6.85;3.40;;;;;;;13.68;100.00;93408.75;5526158;25;20012;-79
2024/04/14 01:45:31;;;;;;;7.60;3.30;;;;;;;13.64;100.00;93406.97;5526579;25;20021;-79
2024/04/14 01:47:57;;;;;;;9.30;3.40;;;;;;;13.63;100.00;93411.47;5489141;26;20013;-79
2024/04/14 01:50:23;;;;;;;11.30;3.20;;;;;;;13.62;100.00;93409.91;5492353;26;20115;-78
2024/04/14 01:52:48;;;;;;;9.77;4.22;;;;;;;13.61;100.00;93405.69;5523934;26;20338;-79
2024/04/14 01:55:14;;;;;;;5.13;3.03;;;;;;;13.60;100.00;93412.03;5524155;25;19998;-79
2024/04/14 01:57:39;;;;;;;7.22;3.10;;;;;;;13.58;100.00;93402.84;5493180;26;19993;-79
2024/04/14 02:00:08;;;;;;;7.30;2.97;;;;;;;13.51;100.00;93405.84;5527164;25;19994;-79
2024/04/14 02:02:39;;;;;;;6.63;2.80;;;;;;;13.52;100.00;93408.16;5523319;25;20386;-78
2024/04/14 02:05:05;;;;;;;5.78;2.90;;;;;;;13.45;100.00;93399.84;5525960;25;20069;-79
2024/04/14 02:07:31;;;;;;;5.15;2.53;;;;;;;13.47;100.00;93394.31;5490066;26;19997;-80
2024/04/14 02:09:56;;;;;;;5.88;2.42;;;;;;;13.46;100.00;93390.88;5515943;26;20444;-79
2024/04/14 02:12:22;;;;;;;8.13;2.70;;;;;;;13.47;100.00;93387.19;5524098;26;20179;-79
2024/04/14 02:14:48;;;;;;;5.32;2.70;;;;;;;13.45;100.00;93384.06;5493640;26;20023;-79
2024/04/14 02:17:13;;;;;;;5.85;2.85;;;;;;;13.48;100.00;93387.97;5525839;25;20009;-78
2024/04/14 02:19:39;;;;;;;5.63;2.70;;;;;;;13.46;100.00;93390.09;5523706;26;20029;-78
2024/04/14 02:22:04;;;;;;;7.97;2.58;;;;;;;13.43;100.00;93388.81;5522710;26;20077;-78
2024/04/14 02:24:32;;;;;;;6.47;2.97;;;;;;;13.38;100.00;93386.25;5524655;26;20002;-78
2024/04/14 02:26:58;;;;;;;7.57;2.92;;;;;;;13.38;100.00;93388.09;5525210;26;20454;-79
2024/04/14 02:29:24;;;;;;;8.15;3.10;;;;;;;13.37;100.00;93378.63;5490439;26;20008;-78
2024/04/14 02:31:50;;;;;;;5.97;3.33;;;;;;;13.36;100.00;93382.34;5516434;26;20358;-77
2024/04/14 02:34:16;;;;;;;9.80;3.25;;;;;;;13.33;100.00;93375.78;5521361;26;20040;-78
2024/04/14 02:36:41;;;;;;;7.03;2.97;;;;;;;13.33;100.00;93379.19;5520579;26;20080;-78
2024/04/14 02:39:07;;;;;;;8.18;3.78;;;;;;;13.33;100.00;93373.94;5524991;26;20009;-79
2024/04/14 02:41:32;;;;;;;10.60;3.35;;;;;;;13.34;100.00;93377.34;5524693;26;20514;-78
2024/04/14 02:43:58;;;;;;;9.82;3.40;;;;;;;13.31;100.00;93372.66;5522838;26;20443;-78
2024/04/14 02:46:23;;;;;;;5.07;2.67;;;;;;;13.30;100.00;93373.72;5523909;25;20009;-78
2024/04/14 02:48:50;;;;;;;8.93;3.70;;;;;;;13.31;100.00;93378.69;5512315;26;20010;-79
2024/04/14 02:51:17;;;;;;;7.65;3.30;;;;;;;13.31;100.00;93378.69;5523342;25;20016;-77
2024/04/14 02:53:42;;;;;;;7.63;3.05;;;;;;;13.29;100.00;93374.78;5515472;26;20001;-77
2024/04/14 02:56:08;;;;;;;9.68;3.13;;;;;;;13.29;100.00;93372.16;5521396;26;19998;-78
2024/04/14 02:58:33;;;;;;;6.25;3.30;;;;;;;13.25;100.00;93374.53;5523689;25;20100;-80
2024/04/14 03:01:00;;;;;;;9.02;3.80;;;;;;;13.18;100.00;93366.19;5523640;26;19997;-79
2024/04/14 03:03:26;;;;;;;10.23;3.75;;;;;;;13.24;100.00;93380.06;5521322;26;20017;-79
2024/04/14 03:06:04;;;;;;;7.63;3.63;;;;;;;13.22;100.00;93374.31;5524297;25;20086;-79
2024/04/14 03:08:31;;;;;;;10.27;4.00;;;;;;;13.23;100.00;93373.25;5522344;26;20445;-80
2024/04/14 03:10:58;;;;;;;9.98;4.10;;;;;;;13.21;100.00;93362.22;5525524;25;20005;-79
2024/04/14 03:13:24;;;;;;;8.00;4.00;;;;;;;13.17;100.00;93356.75;5522437;25;20005;-80
2024/04/14 03:15:51;;;;;;;17.50;5.00;;;;;;;13.21;100.00;93357.72;5521425;26;20595;-79
2024/04/14 03:18:18;;;;;;;7.40;4.32;;;;;;;13.18;100.00;93355.69;5523924;25;20029;-79
2024/04/14 03:21:00;;;;;;;8.27;4.20;;;;;;;13.18;100.00;93360.16;5523450;26;19997;-79
2024/04/14 03:23:27;;;;;;;8.25;3.97;;;;;;;13.15;100.00;93353.63;5523500;26;20089;-79
2024/04/14 03:25:53;;;;;;;7.68;4.10;;;;;;;13.11;100.00;93355.25;5486663;26;19998;-78
2024/04/14 03:28:23;;;;;;;9.77;4.20;;;;;;;13.09;100.00;93360.78;5521846;26;20008;-79
2024/04/14 03:30:49;;;;;;;7.60;4.30;;;;;;;13.04;100.00;93358.19;5523838;26;20022;-79
2024/04/14 03:33:14;;;;;;;8.43;4.55;;;;;;;13.08;100.00;93359.22;5496996;26;19998;-80
2024/04/14 03:35:41;;;;;;;9.63;4.68;;;;;;;13.08;100.00;93364.47;5526571;25;20001;-77
2024/04/14 03:38:07;;;;;;;9.65;4.60;;;;;;;13.04;100.00;93357.44;5527360;25;20073;-78
2024/04/14 03:40:33;;;;;;;9.30;4.45;;;;;;;13.06;100.00;93361.34;5493215;26;20402;-79
2024/04/14 03:42:59;;;;;;;7.85;4.30;;;;;;;13.04;100.00;93352.94;5509552;26;20062;-79
2024/04/14 03:45:25;;;;;;;11.73;4.20;;;;;;;13.03;100.00;93358.47;5511573;26;20065;-79
2024/04/14 03:47:54;;;;;;;12.40;4.28;;;;;;;12.99;100.00;93360.91;5525692;25;19993;-79
2024/04/14 03:50:20;;;;;;;10.73;4.53;;;;;;;12.97;100.00;93354.31;5525198;25;20004;-80
2024/04/14 03:52:47;;;;;;;10.43;4.55;;;;;;;12.91;100.00;93350.97;5514094;25;20016;-79
2024/04/14 03:55:13;;;;;;;9.73;4.28;;;;;;;12.92;100.00;93352.53;5518399;26;20666;-79
2024/04/14 03:57:38;;;;;;;10.15;4.45;;;;;;;12.90;100.00;93346.78;5524448;26;20012;-78
2024/04/14 04:00:05;;;;;;;8.75;4.97;;;;;;;12.90;100.00;93344.16;5487156;26;19998;-80
2024/04/14 04:02:40;;;;;;;11.63;4.70;;;;;;;12.91;100.00;93349.13;5483872;26;20008;-79
2024/04/14 04:05:07;;;;;;;7.35;3.80;;;;;;;12.90;100.00;93354.66;5523156;26;20449;-78
2024/04/14 04:07:34;;;;;;;7.65;3.72;;;;;;;12.89;100.00;93350.47;5526115;25;20453;-79
2024/04/14 04:09:59;;;;;;;10.68;3.97;;;;;;;12.88;100.00;93348.91;5525651;25;20449;-79
2024/04/14 04:12:25;;;;;;;8.60;3.90;;;;;;;12.86;100.00;93351.81;5526410;25;20009;-79
2024/04/14 04:14:51;;;;;;;6.25;3.60;;;;;;;12.83;100.00;93357.59;5524024;26;20001;-79
2024/04/14 04:17:17;;;;;;;10.48;4.20;;;;;;;12.81;100.00;93351.06;5520911;25;19998;-80
2024/04/14 04:19:43;;;;;;;10.80;4.38;;;;;;;12.80;100.00;93357.41;5486315;26;20256;-79
2024/04/14 04:22:08;;;;;;;8.85;4.20;;;;;;;12.80;100.00;93357.41;5519061;26;20013;-78
2024/04/14 04:24:34;;;;;;;8.52;4.03;;;;;;;12.78;100.00;93355.03;5461588;26;20001;-78
2024/04/14 04:26:59;;;;;;;9.30;3.83;;;;;;;12.79;100.00;93361.06;5524992;25;20098;-79
2024/04/14 04:29:27;;;;;;;12.93;4.10;;;;;;;12.78;100.00;93354.25;5503574;26;20086;-79
2024/04/14 04:31:54;;;;;;;8.55;3.78;;;;;;;12.77;100.00;93348.22;5524619;26;20065;-79
2024/04/14 04:34:21;;;;;;;7.65;4.05;;;;;;;12.77;100.00;93352.72;5525039;25;19994;-78
2024/04/14 04:36:50;;;;;;;6.93;4.10;;;;;;;12.75;100.00;93349.56;5524895;25;20029;-78
2024/04/14 04:39:16;;;;;;;8.13;4.32;;;;;;;12.68;100.00;93345.44;5521977;26;20089;-78
2024/04/14 04:41:42;;;;;;;16.83;4.55;;;;;;;12.70;100.00;93353.81;5521745;26;20730;-78
2024/04/14 04:44:09;;;;;;;8.95;3.90;;;;;;;12.69;100.00;93343.56;5522211;26;19997;-79
2024/04/14 04:46:35;;;;;;;12.23;4.20;;;;;;;12.69;100.00;93348.81;5525069;25;20017;-78
2024/04/14 04:49:00;;;;;;;9.23;4.28;;;;;;;12.64;100.00;93348.88;5502754;25;19997;-79
2024/04/14 04:51:30;;;;;;;8.35;4.13;;;;;;;12.67;100.00;93349.09;5507396;26;19998;-77
2024/04/14 04:53:55;;;;;;;7.25;3.88;;;;;;;12.65;100.00;93353.06;5524848;25;20459;-79
2024/04/14 04:56:21;;;;;;;8.27;4.03;;;;;;;12.67;100.00;93356.97;5525452;26;19998;-78
2024/04/14 04:58:47;;;;;;;9.98;4.60;;;;;;;12.66;100.00;93352.78;5525784;26;20042;-78
2024/04/14 05:01:12;;;;;;;8.65;4.30;;;;;;;12.68;100.00;93355.94;5526181;26;20453;-79
2024/04/14 05:03:38;;;;;;;6.15;3.60;;;;;;;12.68;100.00;93349.91;5515196;26;19998;-79
2024/04/14 05:06:05;;;;;;;7.95;4.10;;;;;;;12.75;100.00;93349.56;5526405;26;20050;-79
2024/04/14 05:08:34;;;;;;;7.40;4.25;;;;;;;12.86;100.00;93353.66;5526151;26;19997;-79
2024/04/14 05:11:00;;;;;;;10.23;4.20;;;;;;;12.92;100.00;93352.53;5523555;26;20009;-78
2024/04/14 05:13:29;;;;;;;9.80;3.95;;;;;;;12.92;100.00;93342.03;5524470;26;20524;-78
2024/04/14 05:15:55;;;;;;;12.18;4.03;;;;;;;13.07;100.00;93351.59;5528720;25;19998;-77
2024/04/14 05:18:21;;;;;;;9.63;4.47;;;;;;;13.13;100.00;93351.25;5526052;26;19993;-79
2024/04/14 05:20:47;;;;;;;8.70;3.70;;;;;;;13.16;100.00;93342.03;5519771;26;20347;-78
2024/04/14 05:23:13;;;;;;;7.70;4.00;;;;;;;13.27;100.00;93345.34;5524703;26;20016;-78
2024/04/14 05:25:42;;;;;;;9.18;4.22;;;;;;;13.32;100.00;93347.91;5512524;26;20001;-78
2024/04/14 05:28:08;;;;;;;10.40;4.10;;;;;;;13.41;100.00;93346.22;5528755;25;20002;-79
2024/04/14 05:30:39;;;;;;;8.25;3.80;;;;;;;13.50;100.00;93341.91;5527468;25;19993;-78
2024/04/14 05:33:05;;;;;;;6.85;3.65;;;;;;;13.62;100.00;93344.13;5524024;25;20445;-79
2024/04/14 05:35:31;;;;;;;7.32;3.50;;;;;;;13.77;100.00;93348.41;5525477;26;20008;-79
2024/04/14 05:37:57;;;;;;;11.05;3.33;;;;;;;14.01;100.00;93352.81;5525145;25;19998;-79
2024/04/14 05:40:22;;;;;;;13.10;3.13;;;;;;;14.23;100.00;93349.56;5519294;26;20008;-78
2024/04/14 05:42:48;;;;;;;9.43;3.65;;;;;;;14.38;100.00;93354.59;5512165;26;20008;-79
2024/04/14 05:45:26;;;;;;;7.25;3.40;;;;;;;14.51;100.00;93359.13;5517628;25;20001;-78
2024/04/14 05:47:55;;;;;;;7.40;3.35;;;;;;;14.61;100.00;93355.56;5514180;26;19997;-78
2024/04/14 05:50:21;;;;;;;6.60;3.33;;;;;;;14.71;100.00;93355.41;5515806;26;20108;-77
2024/04/14 05:52:47;;;;;;;6.78;3.70;;;;;;;14.83;100.00;93356.78;5518833;26;20008;-78
2024/04/14 05:55:13;;;;;;;8.00;3.67;;;;;;;14.92;100.00;93358.44;5515203;26;20060;-77
2024/04/14 05:57:38;;;;;;;8.18;3.20;;;;;;;15.00;100.00;93357.00;5479179;26;19998;-81
2024/04/14 06:00:04;;;;;;;5.88;3.05;;;;;;;15.16;100.00;93365.41;5511024;26;20004;-79
2024/04/14 06:02:39;;;;;;;5.63;2.85;;;;;;;15.30;100.00;93366.19;5518401;26;19993;-79
2024/04/14 06:05:06;;;;;;;7.00;3.42;;;;;;;15.45;100.00;93365.13;5521902;25;20012;-79
2024/04/14 06:07:31;;;;;;;10.65;3.20;;;;;;;15.58;100.00;93369.59;5522798;26;19993;-79
2024/04/14 06:09:57;;;;;;;8.80;3.03;;;;;;;15.81;100.00;93367.06;5525362;25;20456;-79
2024/04/14 06:12:22;;;;;;;8.80;3.35;;;;;;;16.02;100.00;93370.81;5522936;25;20440;-79
2024/04/14 06:14:48;;;;;;;8.20;3.22;;;;;;;16.28;100.00;93362.31;5509822;26;20008;-77
2024/04/14 06:17:14;;;;;;;5.00;3.03;;;;;;;16.64;100.00;93356.97;5511152;26;20006;-79
2024/04/14 06:19:39;;;;;;;10.15;3.30;;;;;;;17.63;100.00;93362.06;5478036;26;20008;-80
2024/04/14 06:22:05;;;;;;;7.55;3.22;;;;;;;18.99;99.05;93363.78;5506348;26;20015;-80
2024/04/14 06:24:31;;;;;;;4.95;2.85;;;;;;;20.25;88.38;93366.75;5523954;26;20016;-79
2024/04/14 06:26:56;;;;;;;4.93;2.88;;;;;;;21.38;80.98;93363.75;5523850;26;20375;-80
2024/04/14 06:29:22;;;;;;;8.20;3.13;;;;;;;22.35;75.62;93365.91;5519959;26;20012;-80
2024/04/14 06:31:48;;;;;;;6.60;3.20;;;;;;;23.10;63.08;93361.81;5516708;26;19998;-80
2024/04/14 06:34:13;;;;;;;7.45;2.75;;;;;;;24.03;60.35;93356.78;5523522;25;19997;-81
2024/04/14 06:36:39;;;;;;;4.93;3.08;;;;;;;24.76;53.65;93367.84;5526591;26;19997;-80
2024/04/14 06:39:05;;;;;;;7.05;3.10;;;;;;;24.66;52.02;93363.84;5527160;26;19997;-80
2024/04/14 06:41:30;;;;;;;7.43;3.03;;;;;;;25.23;51.47;93352.63;5523937;26;19994;-80
2024/04/14 06:43:56;;;;;;;8.35;2.88;;;;;;;25.86;49.95;93352.09;5516308;26;20054;-80
2024/04/14 06:46:21;;;;;;;8.57;3.75;;;;;;;26.47;46.08;93352.16;5526573;25;20473;-80
2024/04/14 06:48:47;;;;;;;6.25;2.75;;;;;;;26.89;44.13;93351.13;5481124;26;20002;-80
2024/04/14 06:51:12;;;;;;;7.47;3.22;;;;;;;26.98;41.43;93354.31;5520406;26;20012;-80
2024/04/14 06:53:38;;;;;;;6.40;2.83;;;;;;;26.45;43.12;93355.19;5494013;26;20008;-80
2024/04/14 06:56:05;;;;;;;6.10;2.92;;;;;;;26.72;43.54;93347.88;5526951;25;20005;-80
2024/04/14 06:58:33;;;;;;;6.80;2.88;;;;;;;25.57;46.32;93350.13;5510555;26;20016;-80
2024/04/14 07:00:59;;;;;;;9.00;2.78;;;;;;;25.39;45.24;93342.56;5524636;26;20009;-79
2024/04/14 07:03:25;;;;;;;7.15;2.78;;;;;;;24.95;46.49;93337.59;5527137;25;20072;-79
2024/04/14 07:05:50;;;;;;;10.02;2.92;;;;;;;24.29;49.04;93345.47;5524899;26;20009;-79
2024/04/14 07:08:16;;;;;;;6.45;2.88;;;;;;;23.56;51.77;93346.94;5523813;26;20008;-79
2024/04/14 07:10:42;;;;;;;10.23;2.85;;;;;;;23.40;51.66;93346.94;5523963;26;19990;-79
2024/04/14 07:13:07;;;;;;;6.57;3.08;;;;;;;23.07;54.17;93341.94;5488954;26;20051;-80
2024/04/14 07:15:33;;;;;;;5.40;2.75;;;;;;;23.80;54.00;93340.66;5526986;25;20077;-79
2024/04/14 07:17:58;;;;;;;6.90;2.83;;;;;;;24.12;53.24;93345.13;5511702;26;19998;-79
2024/04/14 07:20:24;;;;;;;6.95;2.80;;;;;;;23.81;51.06;93342.19;5524124;26;20071;-78
2024/04/14 07:22:49;;;;;;;7.32;3.00;;;;;;;23.65;50.06;93344.09;5526512;25;20517;-79
2024/04/14 07:25:15;;;;;;;7.32;2.65;;;;;;;23.52;50.51;93340.72;5526756;25;20378;-79
2024/04/14 07:27:42;;;;;;;6.50;2.63;;;;;;;22.78;49.96;93335.84;5526017;25;19998;-79
2024/04/14 07:30:08;;;;;;;7.47;2.33;;;;;;;22.43;51.20;93341.00;5511464;26;19994;-79
2024/04/14 07:32:34;;;;;;;6.15;2.50;;;;;;;22.38;54.17;93343.91;5527517;25;20198;-78
2024/04/14 07:34:59;;;;;;;5.00;2.33;;;;;;;22.76;53.48;93342.63;5512254;26;20009;-78
2024/04/14 07:37:25;;;;;;;5.85;2.78;;;;;;;22.74;49.01;93334.97;5524085;26;19993;-79
2024/04/14 07:39:51;;;;;;;6.38;2.60;;;;;;;22.16;53.61;93343.28;5526773;25;19993;-79
2024/04/14 07:42:16;;;;;;;7.93;3.00;;;;;;;21.95;56.01;93342.66;5511877;26;20002;-79
2024/04/14 07:44:42;;;;;;;4.38;2.45;;;;;;;22.30;54.39;93342.94;5525579;26;20005;-80
2024/04/14 07:47:07;;;;;;;6.05;2.50;;;;;;;22.36;54.71;93341.59;5526763;25;20005;-79
2024/04/14 07:49:36;;;;;;;7.93;2.63;;;;;;;22.24;59.24;93345.03;5493321;26;20012;-78
2024/04/14 07:52:02;;;;;;;5.38;2.60;;;;;;;22.35;56.60;93337.34;5514597;25;20275;-80
2024/04/14 07:54:27;;;;;;;6.10;2.53;;;;;;;22.50;55.94;93338.53;5525108;25;20025;-79
2024/04/14 07:56:53;;;;;;;6.38;2.35;;;;;;;22.51;55.78;93342.75;5524804;25;20009;-79
2024/04/14 07:59:18;;;;;;;4.88;2.50;;;;;;;22.27;55.04;93340.16;5508817;25;20006;-78
2024/04/14 08:01:44;;;;;;;6.22;2.97;;;;;;;22.34;58.30;93338.47;5521449;26;20098;-79
2024/04/14 08:04:09;;;;;;;4.78;2.40;;;;;;;22.48;53.98;93335.44;5524066;26;20441;-79
2024/04/14 08:06:35;;;;;;;7.28;2.60;;;;;;;22.63;55.56;93337.38;5525619;25;19994;-78
2024/04/14 08:09:01;;;;;;;9.38;3.22;;;;;;;22.46;58.28;93334.97;5521624;26;19998;-79
2024/04/14 08:11:26;;;;;;;6.45;2.85;;;;;;;22.19;57.75;93328.50;5524136;25;19997;-79
2024/04/14 08:13:53;;;;;;;8.43;2.83;;;;;;;22.38;55.93;93328.69;5515422;25;20002;-79
2024/04/14 08:16:19;;;;;;;7.45;2.70;;;;;;;22.34;55.94;93337.72;5521481;26;20008;-78
2024/04/14 08:18:45;;;;;;;3.80;2.28;;;;;;;22.31;55.79;93333.81;5515859;26;19998;-79
2024/04/14 08:21:11;;;;;;;5.25;2.40;;;;;;;22.24;56.61;93333.63;5508532;25;20445;-79
2024/04/14 08:23:40;;;;;;;6.38;2.85;;;;;;;21.98;56.98;93337.44;5520656;26;20345;-79
2024/04/14 08:26:06;;;;;;;5.47;2.40;;;;;;;21.86;57.79;93336.69;5506346;25;20034;-79
2024/04/14 08:28:32;;;;;;;12.00;2.60;;;;;;;21.70;55.54;93332.03;5524358;26;20528;-79
2024/04/14 08:30:57;;;;;;;4.93;2.45;;;;;;;21.95;57.11;93332.00;5524961;25;20042;-79
2024/04/14 08:33:23;;;;;;;4.82;2.58;;;;;;;22.04;56.71;93336.09;5526984;26;20008;-79
2024/04/14 08:35:48;;;;;;;5.25;2.22;;;;;;;21.82;55.46;93337.34;5528478;25;20411;-79
2024/04/14 08:38:15;;;;;;;5.30;2.40;;;;;;;22.13;54.93;93333.28;5527706;25;20002;-78
2024/04/14 08:40:40;;;;;;;8.27;2.65;;;;;;;22.20;56.11;93333.50;5528435;26;20009;-79
2024/04/14 08:43:06;;;;;;;7.03;2.63;;;;;;;22.37;54.58;93345.03;5525312;26;19998;-79
2024/04/14 08:45:32;;;;;;;10.07;2.60;;;;;;;22.24;53.63;93344.28;5512951;26;20012;-80
2024/04/14 08:47:59;;;;;;;5.65;2.60;;;;;;;22.36;53.61;93340.78;5528156;26;20011;-79
2024/04/14 08:50:25;;;;;;;5.45;2.70;;;;;;;22.30;55.99;93331.50;5522741;25;20005;-79
2024/04/14 08:52:51;;;;;;;8.43;2.45;;;;;;;22.26;51.71;93341.28;5516870;26;20442;-79
2024/04/14 08:55:17;;;;;;;8.70;2.80;;;;;;;22.12;53.45;93347.72;5527833;25;20029;-80
2024/04/14 08:57:43;;;;;;;8.30;2.95;;;;;;;22.19;53.68;93342.59;5509400;25;20013;-79
2024/04/14 09:00:13;;;;;;;5.43;2.60;;;;;;;22.40;54.72;93347.81;5525935;26;20464;-78
2024/04/14 09:02:42;;;;;;;6.15;2.30;;;;;;;22.46;52.07;93337.66;5528680;25;19993;-79
2024/04/14 09:05:11;;;;;;;5.63;2.45;;;;;;;22.49;51.61;93339.63;5496334;26;20013;-79
2024/04/14 09:07:37;;;;;;;5.13;2.10;;;;;;;22.65;53.89;93337.00;5525993;26;19993;-80
2024/04/14 09:10:04;;;;;;;4.40;2.40;;;;;;;22.52;51.16;93343.53;5526698;26;19997;-79
2024/04/14 09:12:30;;;;;;;9.00;2.78;;;;;;;22.34;54.18;93337.72;5527011;26;20012;-79
2024/04/14 09:14:56;;;;;;;6.18;2.72;;;;;;;22.49;53.64;93344.97;5525860;26;19997;-79
2024/04/14 09:17:22;;;;;;;8.18;2.75;;;;;;;22.56;53.11;93339.84;5524614;26;20054;-80
2024/04/14 09:19:48;;;;;;;6.57;2.85;;;;;;;22.18;58.92;93346.38;5527158;25;20332;-79
2024/04/14 09:22:14;;;;;;;5.35;2.75;;;;;;;22.32;56.06;93346.03;5526459;25;20035;-79
2024/04/14 09:24:39;;;;;;;7.13;2.90;;;;;;;22.32;56.98;93348.72;5526212;25;19997;-79
2024/04/14 09:27:05;;;;;;;5.05;2.80;;;;;;;22.45;58.00;93336.13;5525009;26;20073;-79
2024/04/14 09:29:31;;;;;;;5.78;2.63;;;;;;;22.59;56.10;93333.81;5527308;25;19997;-79
2024/04/14 09:31:57;;;;;;;7.35;3.08;;;;;;;22.40;56.27;93342.47;5525072;26;19997;-79
2024/04/14 09:34:23;;;;;;;10.13;2.80;;;;;;;22.31;53.42;93338.38;5524975;26;19997;-79
2024/04/14 09:36:49;;;;;;;7.90;2.50;;;;;;;22.53;52.06;93335.19;5512330;25;20017;-79
2024/04/14 09:39:20;;;;;;;5.53;2.58;;;;;;;22.62;55.33;93327.78;5512459;25;19998;-80
2024/04/14 09:41:46;;;;;;;7.03;2.47;;;;;;;22.47;57.44;93333.84;5519723;26;19998;-79
2024/04/14 09:44:13;;;;;;;8.95;2.53;;;;;;;22.70;49.06;93335.97;5519436;26;20005;-79
2024/04/14 09:46:40;;;;;;;5.68;2.60;;;;;;;23.00;53.27;93333.75;5525148;26;20074;-79
2024/04/14 09:49:06;;;;;;;5.68;2.63;;;;;;;23.38;50.32;93335.06;5517599;25;20439;-79
2024/04/14 09:51:34;;;;;;;5.45;2.60;;;;;;;23.21;48.00;93336.16;5511662;26;20076;-79
2024/04/14 09:54:02;;;;;;;6.97;3.03;;;;;;;23.20;50.03;93323.94;5524573;26;20008;-79
2024/04/14 09:56:28;;;;;;;8.25;2.80;;;;;;;23.13;51.48;93334.47;5513735;26;20080;-80
2024/04/14 09:58:54;;;;;;;6.82;2.60;;;;;;;23.26;48.38;93338.59;5526706;25;20020;-79
2024/04/14 10:01:31;;;;;;;8.38;2.85;;;;;;;23.19;48.94;93330.38;5521711;26;20022;-78
2024/04/14 10:04:00;;;;;;;6.45;2.80;;;;;;;23.17;50.29;93328.09;5524160;26;20044;-79
2024/04/14 10:06:27;;;;;;;7.00;2.70;;;;;;;22.93;51.37;93323.63;5487542;26;20002;-79
2024/04/14 10:08:53;;;;;;;6.70;2.67;;;;;;;23.20;48.85;93329.28;5508080;25;20002;-80
2024/04/14 10:11:20;;;;;;;6.13;2.58;;;;;;;23.12;47.44;93314.97;5526511;25;20134;-80
2024/04/14 10:13:53;;;;;;;6.22;2.63;;;;;;;22.94;49.32;93322.50;5526416;25;20442;-79
2024/04/14 10:16:22;;;;;;;5.45;2.60;;;;;;;22.81;47.88;93313.03;5525682;26;20016;-79
2024/04/14 10:18:49;;;;;;;7.38;3.22;;;;;;;22.87;48.33;93319.66;5525271;25;20001;-80
2024/04/14 10:21:22;;;;;;;7.55;2.60;;;;;;;22.93;52.51;93317.53;5524078;26;20033;-80
2024/04/14 10:23:57;;;;;;;6.03;2.60;;;;;;;23.04;54.32;93315.94;5525707;25;20005;-79
2024/04/14 10:26:23;;;;;;;6.25;3.00;;;;;;;22.92;51.71;93314.09;5523043;26;20001;-80
2024/04/14 10:28:56;;;;;;;6.30;3.15;;;;;;;23.04;54.78;93313.25;5525156;25;20012;-79
2024/04/14 10:31:28;;;;;;;7.88;3.40;;;;;;;23.12;53.42;93312.28;5505453;25;19998;-79
2024/04/14 10:34:05;;;;;;;7.03;3.00;;;;;;;23.16;55.37;93307.06;5510075;25;20025;-79
2024/04/14 10:36:33;;;;;;;4.85;2.60;;;;;;;23.23;55.67;93304.56;5525350;25;20026;-79
2024/04/14 10:38:59;;;;;;;6.30;3.63;;;;;;;23.45;56.93;93303.94;5504194;26;19998;-80
2024/04/14 10:41:25;;;;;;;5.50;3.22;;;;;;;23.42;54.66;93293.94;5508770;25;19993;-80
2024/04/14 10:43:51;;;;;;;7.40;3.40;;;;;;;23.23;55.94;93291.97;5507933;26;20008;-79
2024/04/14 10:46:17;;;;;;;6.50;3.03;;;;;;;23.36;55.85;93294.56;5526432;25;19997;-79
2024/04/14 10:48:46;;;;;;;18.48;8.60;;;;;;;23.40;53.48;93295.41;5522852;26;20005;-79
2024/04/14 10:51:13;;;;;;;13.55;6.40;;;;;;;23.57;54.10;93296.94;5525085;25;20021;-80
2024/04/14 10:53:39;;;;;;;15.38;6.20;;;;;;;23.46;52.67;93292.13;5491436;26;20564;-79
2024/04/14 10:56:06;;;;;;;8.57;3.65;;;;;;;23.16;52.61;93280.34;5524790;25;20012;-79
2024/04/14 10:58:33;;;;;;;22.98;10.43;;;;;;;23.37;53.62;93286.19;5517806;26;19998;-80
2024/04/14 11:01:00;;;;;;;8.45;3.60;;;;;;;23.32;55.45;93283.78;5508689;26;20045;-79
2024/04/14 11:03:26;;;;;;;10.88;4.32;;;;;;;23.43;52.45;93284.03;5519559;25;20009;-79
2024/04/14 11:05:53;;;;;;;9.02;4.63;;;;;;;23.30;51.44;93286.00;5525565;25;20005;-79
2024/04/14 11:08:21;;;;;;;10.57;4.30;;;;;;;23.52;53.60;93281.94;5524158;25;20008;-79
2024/04/14 11:10:49;;;;;;;8.38;3.13;;;;;;;23.70;54.82;93280.44;5525442;25;20002;-79
2024/04/14 11:13:16;;;;;;;4.95;2.67;;;;;;;23.55;47.71;93269.78;5525506;25;19993;-79
2024/04/14 11:15:45;;;;;;;7.70;3.35;;;;;;;23.63;55.25;93274.16;5525870;25;20004;-79
2024/04/14 11:18:11;;;;;;;8.25;3.92;;;;;;;23.71;54.33;93273.22;5521505;26;20009;-80
2024/04/14 11:20:37;;;;;;;7.70;3.00;;;;;;;23.61;53.08;93266.50;5511294;26;20077;-78
2024/04/14 11:23:05;;;;;;;8.25;3.60;;;;;;;23.55;49.02;93264.44;5523147;26;19997;-79